Time;durP1;ratioP1;P1;durP2;ratioP2;P2;SDS_P1;SDS_P2;PMS_P1;PMS_P2;Temp;Humidity;BMP_temperature;BMP_pressure;BME280_temperature;BME280_humidity;BME280_pressure;Samples;Min_cycle;Max_cycle;Signal;HPM_P1;HPM_P2
2020/12/31 00:00:00;;;;;;;1999.90;999.90;;;;;;;-1.07;100.00;101469.16;1741466;81;21574;-64
2020/12/31 00:02:28;;;;;;;1999.90;999.90;;;;;;;-1.09;100.00;101469.89;1736825;81;21131;-64
2020/12/31 00:04:56;;;;;;;1999.90;999.90;;;;;;;-1.11;100.00;101464.67;1745101;81;21095;-64
2020/12/31 00:07:24;;;;;;;1999.90;999.90;;;;;;;-1.11;100.00;101463.83;1735153;81;21447;-70
2020/12/31 00:09:52;;;;;;;1999.90;999.90;;;;;;;-1.11;100.00;101467.38;1739292;81;21147;-66
2020/12/31 00:12:20;;;;;;;1999.90;999.90;;;;;;;-1.10;100.00;101455.47;1738895;81;21056;-64
2020/12/31 00:14:47;;;;;;;1999.90;999.90;;;;;;;-1.12;100.00;101455.38;1743053;81;21112;-64
2020/12/31 00:17:15;;;;;;;1999.90;999.90;;;;;;;-1.17;100.00;101452.45;1738573;81;21132;-71
2020/12/31 00:19:43;;;;;;;1999.90;999.90;;;;;;;-1.20;100.00;101445.55;1745543;81;21796;-64
2020/12/31 00:22:11;;;;;;;1999.90;999.90;;;;;;;-1.22;100.00;101454.44;1741487;81;21151;-70
2020/12/31 00:24:39;;;;;;;1999.90;999.90;;;;;;;-1.21;100.00;101454.75;1744911;81;21151;-69
2020/12/31 00:27:07;;;;;;;1999.90;999.90;;;;;;;-1.22;100.00;101459.03;1738819;81;21578;-71
2020/12/31 00:29:35;;;;;;;1999.90;999.90;;;;;;;-1.23;100.00;101454.13;1742525;81;21144;-65
2020/12/31 00:32:03;;;;;;;1999.90;999.90;;;;;;;-1.24;100.00;101444.83;1740542;81;22289;-64
2020/12/31 00:34:31;;;;;;;1999.90;999.90;;;;;;;-1.25;100.00;101445.34;1745607;81;21017;-69
2020/12/31 00:36:59;;;;;;;1999.90;999.90;;;;;;;-1.26;100.00;101446.91;1739929;81;21175;-71
2020/12/31 00:39:26;;;;;;;1999.90;999.90;;;;;;;-1.25;100.00;101444.51;1745275;81;21226;-71
2020/12/31 00:41:54;;;;;;;1999.90;999.90;;;;;;;-1.24;100.00;101442.11;1742914;81;21123;-71
2020/12/31 00:44:22;;;;;;;1999.90;999.90;;;;;;;-1.25;100.00;101442.63;1742932;81;23033;-64
2020/12/31 00:46:50;;;;;;;1999.90;999.90;;;;;;;-1.28;100.00;101433.55;1740900;81;21164;-71
2020/12/31 00:49:18;;;;;;;1999.90;999.90;;;;;;;-1.31;100.00;101444.83;1745306;81;21108;-64
2020/12/31 00:51:45;;;;;;;1999.90;999.90;;;;;;;-1.31;100.00;101451.61;1749148;81;21119;-64
2020/12/31 00:54:13;;;;;;;1999.90;999.90;;;;;;;-1.33;100.00;101442.31;1739716;81;21429;-70
2020/12/31 00:56:41;;;;;;;1999.90;999.90;;;;;;;-1.33;100.00;101441.48;1755978;80;21378;-71
2020/12/31 00:59:09;;;;;;;1999.90;999.90;;;;;;;-1.35;100.00;101442.21;1767889;80;20996;-71
2020/12/31 01:01:37;;;;;;;1999.90;999.90;;;;;;;-1.37;100.00;101440.23;1756862;79;21135;-70
2020/12/31 01:04:05;;;;;;;1999.90;999.90;;;;;;;-1.36;100.00;101441.89;1765773;80;21127;-70
2020/12/31 01:06:36;;;;;;;1999.90;999.90;;;;;;;-1.38;100.00;101443.98;1768735;79;21205;-64
2020/12/31 01:09:08;;;;;;;1999.90;999.90;;;;;;;-1.38;100.00;101446.70;1763101;80;22254;-70
2020/12/31 01:11:36;;;;;;;1999.90;999.90;;;;;;;-1.37;100.00;101444.30;1773368;80;21515;-70
2020/12/31 01:14:05;;;;;;;1999.90;999.90;;;;;;;-1.37;100.00;101436.16;1763596;80;21079;-71
2020/12/31 01:16:33;;;;;;;1999.90;999.90;;;;;;;-1.39;100.00;101426.02;1773073;80;21107;-64
2020/12/31 01:19:02;;;;;;;1999.90;999.90;;;;;;;-1.39;100.00;101428.73;1771372;80;21218;-71
2020/12/31 01:21:30;;;;;;;1999.90;999.90;;;;;;;-1.42;100.00;101429.99;1768883;79;21260;-69
2020/12/31 01:23:58;;;;;;;1999.90;999.90;;;;;;;-1.45;100.00;101424.14;1760214;80;21621;-70
2020/12/31 01:26:33;;;;;;;1999.90;999.90;;;;;;;-1.44;100.00;101425.81;1752830;79;20968;-63
2020/12/31 01:29:01;;;;;;;1999.90;999.90;;;;;;;-1.46;100.00;101423.83;1765851;80;21011;-63
2020/12/31 01:31:28;;;;;;;1999.90;999.90;;;;;;;-1.46;100.00;101422.47;1753907;80;21103;-63
2020/12/31 01:33:56;;;;;;;1999.90;999.90;;;;;;;-1.46;100.00;101424.66;1757214;80;22307;-71
2020/12/31 01:36:24;;;;;;;1999.90;999.90;;;;;;;-1.47;100.00;101421.63;1769548;80;20981;-64
2020/12/31 01:38:52;;;;;;;1999.90;999.90;;;;;;;-1.46;100.00;101425.19;1766792;80;21083;-71
2020/12/31 01:41:24;;;;;;;1999.90;999.90;;;;;;;-1.47;100.00;101426.23;1775084;80;21107;-64
2020/12/31 01:44:09;;;;;;;1999.90;999.90;;;;;;;-1.49;100.00;101424.24;1765734;79;20972;-64
2020/12/31 01:46:39;;;;;;;1999.90;999.90;;;;;;;-1.49;100.00;101428.31;1760166;80;21484;-64
2020/12/31 01:49:08;;;;;;;1999.90;999.90;;;;;;;-1.48;100.00;101418.61;1759013;80;21118;-64
2020/12/31 01:51:36;;;;;;;1999.90;999.90;;;;;;;-1.48;100.00;101414.53;1770568;79;20945;-63
2020/12/31 01:54:04;;;;;;;1999.90;999.90;;;;;;;-1.50;100.00;101421.22;1764147;80;21177;-71
2020/12/31 01:56:34;;;;;;;1999.90;999.90;;;;;;;-1.49;100.00;101422.89;1773252;79;21143;-69
2020/12/31 01:59:02;;;;;;;1999.90;999.90;;;;;;;-1.50;100.00;101422.05;1766138;79;21375;-63
2020/12/31 02:01:30;;;;;;;1999.90;999.90;;;;;;;-1.50;100.00;101415.78;1775052;79;21537;-71
2020/12/31 02:03:58;;;;;;;1999.90;999.90;;;;;;;-1.50;100.00;101426.13;1764377;79;21168;-71
2020/12/31 02:06:27;;;;;;;1999.90;999.90;;;;;;;-1.49;100.00;101424.24;1756965;79;21174;-70
2020/12/31 02:08:55;;;;;;;1999.90;999.90;;;;;;;-1.48;100.00;101415.89;1763628;80;21095;-63
2020/12/31 02:11:24;;;;;;;1999.90;999.90;;;;;;;-1.47;100.00;101409.94;1759067;80;21373;-70
2020/12/31 02:13:52;;;;;;;1999.90;999.90;;;;;;;-1.47;100.00;101409.94;1763769;80;21632;-64
2020/12/31 02:16:23;;;;;;;1999.90;999.90;;;;;;;-1.48;100.00;101410.46;1755305;80;21130;-64
2020/12/31 02:18:58;;;;;;;1999.90;999.90;;;;;;;-1.50;100.00;101413.91;1770697;79;21614;-72
2020/12/31 02:21:27;;;;;;;;;;;;;;;-1.51;100.00;101404.61;1773759;79;21213;-64
2020/12/31 02:23:55;;;;;;;1999.90;999.90;;;;;;;-1.53;100.00;101409.41;1768023;80;21379;-71
2020/12/31 02:26:25;;;;;;;1999.90;999.90;;;;;;;-1.54;100.00;101402.31;1768877;80;21114;-71
2020/12/31 02:28:54;;;;;;;1999.90;999.90;;;;;;;-1.55;100.00;101394.69;1756564;80;21103;-63
2020/12/31 02:31:22;;;;;;;1999.90;999.90;;;;;;;-1.56;100.00;101390.83;1763949;79;20983;-70
2020/12/31 02:33:52;;;;;;;1999.90;999.90;;;;;;;-1.59;100.00;101398.87;1761569;79;21150;-64
2020/12/31 02:36:24;;;;;;;1999.90;999.90;;;;;;;-1.59;100.00;101396.67;1772955;79;22261;-69
2020/12/31 02:38:52;;;;;;;1999.90;999.90;;;;;;;-1.60;100.00;101386.86;1759744;79;21139;-63
2020/12/31 02:41:20;;;;;;;1999.90;999.90;;;;;;;-1.60;100.00;101387.70;1769690;80;21609;-63
2020/12/31 02:43:48;;;;;;;1999.90;999.90;;;;;;;-1.60;100.00;101393.65;1763337;80;21122;-64
2020/12/31 02:46:19;;;;;;;1999.90;999.90;;;;;;;-1.61;100.00;101396.88;1770048;79;21573;-72
2020/12/31 02:48:47;;;;;;;1999.90;999.90;;;;;;;-1.60;100.00;101386.86;1765807;80;21434;-71
2020/12/31 02:51:15;;;;;;;1999.90;999.90;;;;;;;-1.60;100.00;101378.20;1767792;80;21122;-70
2020/12/31 02:53:43;;;;;;;1999.90;999.90;;;;;;;-1.59;100.00;101381.22;1770365;79;21612;-71
2020/12/31 02:56:12;;;;;;;1999.90;999.90;;;;;;;-1.59;100.00;101376.31;1769676;79;21288;-64
2020/12/31 02:58:40;;;;;;;1999.90;999.90;;;;;;;-1.60;100.00;101379.55;1761204;80;21574;-63
2020/12/31 03:01:09;;;;;;;1999.90;999.90;;;;;;;-1.58;100.00;101378.83;1763376;79;21198;-64
2020/12/31 03:03:37;;;;;;;1999.90;999.90;;;;;;;-1.57;100.00;101379.66;1758112;79;21170;-72
2020/12/31 03:06:08;;;;;;;1999.90;999.90;;;;;;;-1.59;100.00;101364.94;1764074;80;20988;-64
2020/12/31 03:08:37;;;;;;;1999.90;999.90;;;;;;;-1.60;100.00;101370.58;1761184;80;21617;-71
2020/12/31 03:11:20;;;;;;;1999.90;999.90;;;;;;;-1.59;100.00;101373.08;1770100;79;21561;-71
2020/12/31 03:13:49;;;;;;;1999.90;999.90;;;;;;;-1.58;100.00;101368.48;1766810;80;21584;-72
2020/12/31 03:16:18;;;;;;;1999.90;999.90;;;;;;;-1.57;100.00;101369.64;1765266;79;21134;-64
2020/12/31 03:18:46;;;;;;;1999.90;999.90;;;;;;;-1.62;100.00;101374.33;1766035;80;21146;-64
2020/12/31 03:21:15;;;;;;;1999.90;999.90;;;;;;;-1.63;100.00;101368.59;1765570;80;21103;-70
2020/12/31 03:23:42;;;;;;;1999.90;999.90;;;;;;;-1.65;100.00;101372.03;1760476;80;21150;-63
2020/12/31 03:26:10;;;;;;;1999.90;999.90;;;;;;;-1.67;100.00;101369.22;1771400;79;21432;-64
2020/12/31 03:28:38;;;;;;;1999.90;999.90;;;;;;;-1.70;100.00;101365.04;1765984;80;21136;-64
2020/12/31 03:31:06;;;;;;;1999.90;999.90;;;;;;;-1.70;100.00;101367.75;1772446;80;20996;-71
2020/12/31 03:33:34;;;;;;;1999.90;999.90;;;;;;;-1.69;100.00;101368.06;1766223;79;21111;-72
2020/12/31 03:36:02;;;;;;;1999.90;999.90;;;;;;;-1.66;100.00;101369.01;1767591;79;21154;-70
2020/12/31 03:38:30;;;;;;;1999.90;999.90;;;;;;;-1.64;100.00;101372.34;1764348;80;21381;-64
2020/12/31 03:40:58;;;;;;;1999.90;999.90;;;;;;;-1.63;100.00;101373.19;1759395;80;21111;-71
2020/12/31 03:43:25;;;;;;;1999.90;999.90;;;;;;;-1.63;100.00;101364.52;1757773;80;21565;-64
2020/12/31 03:45:53;;;;;;;1999.90;999.90;;;;;;;-1.63;100.00;101360.97;1763248;79;21083;-70
2020/12/31 03:48:21;;;;;;;1999.90;999.90;;;;;;;-1.65;100.00;101367.12;1765492;79;21716;-72
2020/12/31 03:50:49;;;;;;;1999.90;999.90;;;;;;;-1.67;100.00;101374.64;1769834;79;21194;-72
2020/12/31 03:53:16;;;;;;;1999.90;999.90;;;;;;;-1.69;100.00;101375.38;1764495;80;21134;-71
2020/12/31 03:55:44;;;;;;;1999.90;999.90;;;;;;;-1.69;100.00;101374.85;1766430;79;21118;-71
2020/12/31 03:58:12;;;;;;;1999.90;999.90;;;;;;;-1.70;100.00;101370.47;1767284;80;21526;-72
2020/12/31 04:00:40;;;;;;;1999.90;999.90;;;;;;;-1.71;100.00;101362.02;1772996;79;21391;-64
2020/12/31 04:03:08;;;;;;;1999.90;999.90;;;;;;;-1.69;100.00;101366.70;1753134;79;21218;-63
2020/12/31 04:05:36;;;;;;;1999.90;999.90;;;;;;;-1.68;100.00;101365.66;1768178;79;21515;-64
2020/12/31 04:08:04;;;;;;;1999.90;999.90;;;;;;;-1.69;100.00;101360.45;1769732;80;21138;-63
2020/12/31 04:10:32;;;;;;;1999.90;999.90;;;;;;;-1.69;100.00;101365.87;1764725;80;21095;-71
2020/12/31 04:13:00;;;;;;;1999.90;999.90;;;;;;;-1.67;100.00;101371.41;1755601;80;21588;-71
2020/12/31 04:15:28;;;;;;;1999.90;999.90;;;;;;;-1.65;100.00;101366.61;1758045;79;21364;-71
2020/12/31 04:17:56;;;;;;;1999.90;999.90;;;;;;;-1.64;100.00;101370.16;1763673;79;21126;-71
2020/12/31 04:20:24;;;;;;;1999.90;999.90;;;;;;;-1.62;100.00;101368.91;1757518;80;21012;-64
2020/12/31 04:22:51;;;;;;;1999.90;999.90;;;;;;;-1.62;100.00;101363.48;1760834;80;21142;-64
2020/12/31 04:25:19;;;;;;;1999.90;999.90;;;;;;;-1.62;100.00;101364.83;1763957;79;21107;-68
2020/12/31 04:27:47;;;;;;;1999.90;999.90;;;;;;;-1.61;100.00;101368.38;1756341;80;21586;-71
2020/12/31 04:30:15;;;;;;;1999.90;999.90;;;;;;;-1.65;100.00;101375.27;1761012;79;21114;-72
2020/12/31 04:32:43;;;;;;;1999.90;999.90;;;;;;;-1.68;100.00;101379.23;1756891;80;21202;-71
2020/12/31 04:35:10;;;;;;;1999.90;999.90;;;;;;;-1.69;100.00;101380.80;1760262;79;21093;-72
2020/12/31 04:37:38;;;;;;;1999.90;999.90;;;;;;;-1.68;100.00;101379.76;1755197;80;21127;-64
2020/12/31 04:40:06;;;;;;;1999.90;999.90;;;;;;;-1.68;100.00;101374.33;1763875;79;21453;-64
2020/12/31 04:42:37;;;;;;;1999.90;999.90;;;;;;;-1.68;100.00;101375.69;1758925;80;21138;-71
2020/12/31 04:45:06;;;;;;;1999.90;999.90;;;;;;;-1.68;100.00;101375.17;1760309;80;20999;-63
2020/12/31 04:47:38;;;;;;;1999.90;999.90;;;;;;;-1.68;100.00;101372.45;1758071;80;21153;-70
2020/12/31 04:50:05;;;;;;;1999.90;999.90;;;;;;;-1.66;100.00;101375.80;1761429;79;21119;-64
2020/12/31 04:52:33;;;;;;;1999.90;999.90;;;;;;;-1.66;100.00;101379.03;1768211;80;22282;-64
2020/12/31 04:55:02;;;;;;;1999.90;999.90;;;;;;;-1.64;100.00;101376.94;1745300;80;21111;-64
2020/12/31 04:57:29;;;;;;;1999.90;999.90;;;;;;;-1.63;100.00;101382.16;1770965;79;21574;-64
2020/12/31 04:59:59;;;;;;;1999.90;999.90;;;;;;;-1.63;100.00;101381.33;1767837;80;21091;-71
2020/12/31 05:02:29;;;;;;;1999.90;999.90;;;;;;;-1.64;100.00;101383.20;1761065;80;21123;-64
2020/12/31 05:05:00;;;;;;;1999.90;999.90;;;;;;;-1.62;100.00;101378.92;1761479;80;21841;-70
2020/12/31 05:07:28;;;;;;;1999.90;999.90;;;;;;;-1.64;100.00;101384.56;1742366;80;21534;-72
2020/12/31 05:10:10;;;;;;;1999.90;999.90;;;;;;;-1.69;100.00;101381.64;1759039;79;21118;-65
2020/12/31 05:12:38;;;;;;;1999.90;999.90;;;;;;;-1.70;100.00;101393.54;1749594;80;21597;-72
2020/12/31 05:15:06;;;;;;;1999.90;999.90;;;;;;;-1.68;100.00;101394.69;1760754;80;21079;-72
2020/12/31 05:17:34;;;;;;;1999.90;999.90;;;;;;;-1.69;100.00;101392.49;1753548;79;21329;-71
2020/12/31 05:20:15;;;;;;;1999.90;999.90;;;;;;;-1.67;100.00;101393.64;1761241;80;21520;-70
2020/12/31 05:22:42;;;;;;;1999.90;999.90;;;;;;;-1.66;100.00;101388.53;1760754;79;20996;-71
2020/12/31 05:25:10;;;;;;;1999.90;999.90;;;;;;;-1.68;100.00;101386.02;1759073;79;21539;-71
2020/12/31 05:27:38;;;;;;;1999.90;999.90;;;;;;;-1.68;100.00;101390.09;1755811;80;21190;-71
2020/12/31 05:30:09;;;;;;;1999.90;999.90;;;;;;;-1.66;100.00;101396.16;1764020;80;22351;-71
2020/12/31 05:32:39;;;;;;;1999.90;999.90;;;;;;;-1.66;100.00;101404.29;1754742;80;21115;-64
2020/12/31 05:35:11;;;;;;;1999.90;999.90;;;;;;;-1.67;100.00;101403.14;1762598;79;21411;-68
2020/12/31 05:37:39;;;;;;;1999.90;999.90;;;;;;;-1.68;100.00;101403.66;1773126;79;21078;-72
2020/12/31 05:40:09;;;;;;;1999.90;999.90;;;;;;;-1.67;100.00;101409.92;1766526;80;21518;-64
2020/12/31 05:42:39;;;;;;;1999.90;999.90;;;;;;;-1.69;100.00;101404.70;1770487;79;21369;-72
2020/12/31 05:45:17;;;;;;;1999.90;999.90;;;;;;;-1.70;100.00;101413.05;1766794;80;20925;-64
2020/12/31 05:47:50;;;;;;;1999.90;999.90;;;;;;;-1.71;100.00;101409.51;1756146;79;20985;-64
2020/12/31 05:50:26;;;;;;;1999.90;999.90;;;;;;;-1.71;100.00;101403.24;1762353;79;21399;-65
2020/12/31 05:52:54;;;;;;;1999.90;999.90;;;;;;;-1.73;100.00;101402.09;1762700;80;21088;-64
2020/12/31 05:55:26;;;;;;;1999.90;999.90;;;;;;;-1.72;100.00;101411.07;1755885;79;21566;-71
2020/12/31 05:57:55;;;;;;;1999.90;999.90;;;;;;;-1.69;100.00;101402.52;1759355;80;21518;-72
2020/12/31 06:00:29;;;;;;;1999.90;999.90;;;;;;;-1.67;100.00;101410.77;1759040;80;21126;-64
2020/12/31 06:02:59;;;;;;;1999.90;999.90;;;;;;;-1.65;100.00;101413.27;1749356;80;21095;-72
2020/12/31 06:05:28;;;;;;;1999.90;999.90;;;;;;;-1.65;100.00;101410.03;1762167;80;21522;-72
2020/12/31 06:07:59;;;;;;;1999.90;999.90;;;;;;;-1.62;100.00;101408.27;1756097;79;21369;-72
2020/12/31 06:10:31;;;;;;;1999.90;999.90;;;;;;;-1.61;100.00;101410.45;1760792;80;21114;-64
2020/12/31 06:13:05;;;;;;;1999.90;999.90;;;;;;;-1.59;100.00;101410.25;1774057;79;20988;-72
2020/12/31 06:15:34;;;;;;;1999.90;999.90;;;;;;;-1.58;100.00;101413.28;1763224;79;22025;-72
2020/12/31 06:18:04;;;;;;;1999.90;999.90;;;;;;;-1.57;100.00;101409.52;1772315;79;21435;-64
2020/12/31 06:20:33;;;;;;;1999.90;999.90;;;;;;;-1.58;100.00;101406.48;1762080;80;21198;-72
2020/12/31 06:23:07;;;;;;;1999.90;999.90;;;;;;;-1.57;100.00;101417.14;1756824;80;21191;-71
2020/12/31 06:25:44;;;;;;;1999.90;999.90;;;;;;;-1.57;100.00;101412.23;1766633;80;20976;-71
2020/12/31 06:28:18;;;;;;;1999.90;999.90;;;;;;;-1.55;100.00;101414.22;1756170;80;21099;-63
2020/12/31 06:30:53;;;;;;;1999.90;999.90;;;;;;;-1.55;100.00;101408.79;1767983;80;21407;-72
2020/12/31 06:33:33;;;;;;;1999.90;999.90;;;;;;;-1.53;100.00;101414.84;1769139;79;21372;-72
2020/12/31 06:36:03;;;;;;;1999.90;999.90;;;;;;;-1.51;100.00;101403.25;1765389;79;21150;-64
2020/12/31 06:38:39;;;;;;;1999.90;999.90;;;;;;;-1.50;100.00;101396.26;1748999;80;21008;-71
2020/12/31 06:41:33;;;;;;;1999.90;999.90;;;;;;;-1.51;100.00;101401.38;1721322;82;21104;-72
2020/12/31 06:44:14;;;;;;;1999.90;999.90;;;;;;;-1.51;100.00;101401.90;1750544;81;21147;-64
2020/12/31 06:46:48;;;;;;;1999.90;999.90;;;;;;;-1.51;100.00;101396.47;1735912;81;21456;-70
2020/12/31 06:49:17;;;;;;;1999.90;999.90;;;;;;;-1.50;100.00;101406.28;1740747;81;21432;-64
2020/12/31 06:51:44;;;;;;;1999.90;999.90;;;;;;;-1.47;100.00;101400.44;1734632;81;21100;-64
2020/12/31 06:54:12;;;;;;;1999.90;999.90;;;;;;;-1.48;100.00;101411.81;1739642;81;21151;-64
2020/12/31 06:56:51;;;;;;;1999.90;999.90;;;;;;;-1.46;100.00;101403.47;1739222;81;21095;-72
2020/12/31 06:59:34;;;;;;;1999.90;999.90;;;;;;;-1.41;100.00;101404.51;1738156;81;21744;-73
2020/12/31 07:02:04;;;;;;;1999.90;999.90;;;;;;;-1.40;100.00;101409.42;1736977;81;21525;-64
2020/12/31 07:04:33;;;;;;;1999.90;999.90;;;;;;;-1.37;100.00;101408.48;1739868;81;21044;-64
2020/12/31 07:07:21;;;;;;;1999.90;999.90;;;;;;;-1.35;100.00;101410.45;1739953;81;21147;-65
2020/12/31 07:09:58;;;;;;;1999.90;999.90;;;;;;;-1.33;100.00;101409.73;1749358;81;21115;-64
2020/12/31 07:12:39;;;;;;;1999.90;999.90;;;;;;;-1.31;100.00;101410.35;1739769;81;21217;-72
2020/12/31 07:15:08;;;;;;;1999.90;999.90;;;;;;;-1.28;100.00;101408.27;1741146;81;20969;-71
2020/12/31 07:17:38;;;;;;;1999.90;999.90;;;;;;;-1.25;100.00;101408.68;1742020;81;21118;-71
2020/12/31 07:20:09;;;;;;;1999.90;999.90;;;;;;;-1.23;100.00;101412.55;1733490;81;21131;-64
2020/12/31 07:22:38;;;;;;;1999.90;999.90;;;;;;;-1.21;100.00;101408.57;1740364;81;21188;-64
2020/12/31 07:25:09;;;;;;;1999.90;999.90;;;;;;;-1.17;100.00;101408.98;1746052;81;21382;-65
2020/12/31 07:27:42;;;;;;;1999.90;999.90;;;;;;;-1.15;100.00;101403.66;1751490;81;21798;-64
2020/12/31 07:30:22;;;;;;;1999.90;999.90;;;;;;;-1.14;100.00;101412.64;1748566;81;21119;-64
2020/12/31 07:33:05;;;;;;;1999.90;999.90;;;;;;;-1.12;100.00;101421.41;1746910;81;21147;-64
2020/12/31 07:35:43;;;;;;;1999.90;999.90;;;;;;;-1.12;100.00;101414.62;1742157;81;21136;-64
2020/12/31 07:38:14;;;;;;;1999.90;999.90;;;;;;;-1.09;100.00;101414.20;1742856;81;21389;-64
2020/12/31 07:40:50;;;;;;;1999.90;999.90;;;;;;;-1.07;100.00;101418.38;1743080;81;21163;-64
2020/12/31 07:43:27;;;;;;;1999.90;999.90;;;;;;;-1.04;100.00;101421.20;1742953;81;21129;-72
2020/12/31 07:46:00;;;;;;;1999.90;999.90;;;;;;;-1.05;100.00;101420.88;1736077;81;21096;-63
2020/12/31 07:48:29;;;;;;;1999.90;999.90;;;;;;;-1.03;100.00;101416.07;1736903;81;21626;-73
2020/12/31 07:50:58;;;;;;;1999.90;999.90;;;;;;;-1.00;100.00;101424.64;1741483;81;21202;-64
2020/12/31 07:53:26;;;;;;;1999.90;999.90;;;;;;;-0.97;100.00;101420.66;1732769;81;21631;-64
2020/12/31 07:55:54;;;;;;;1999.90;999.90;;;;;;;-0.95;100.00;101418.56;1740811;81;21116;-73
2020/12/31 07:58:27;;;;;;;1999.90;999.90;;;;;;;-0.93;100.00;101409.68;1731784;81;21578;-64
2020/12/31 08:01:06;;;;;;;1999.90;999.90;;;;;;;-0.92;100.00;101407.80;1734486;81;21117;-72
2020/12/31 08:03:34;;;;;;;1999.90;999.90;;;;;;;-0.90;100.00;101402.98;1739931;81;21385;-72
2020/12/31 08:06:07;;;;;;;1999.90;999.90;;;;;;;-0.88;100.00;101403.61;1735879;81;21141;-72
2020/12/31 08:08:36;;;;;;;1999.90;999.90;;;;;;;-0.88;100.00;101396.29;1739101;81;21544;-71
2020/12/31 08:11:10;;;;;;;1999.90;999.90;;;;;;;-0.86;100.00;101394.72;1742224;81;21119;-63
2020/12/31 08:13:38;;;;;;;1999.90;999.90;;;;;;;-0.84;100.00;101395.34;1746922;81;21202;-72
2020/12/31 08:16:07;;;;;;;1999.90;999.90;;;;;;;-0.83;100.00;101390.22;1740660;81;21400;-70
2020/12/31 08:18:35;;;;;;;1999.90;999.90;;;;;;;-0.81;100.00;101389.48;1742125;81;21178;-62
2020/12/31 08:21:04;;;;;;;1999.90;999.90;;;;;;;-0.82;100.00;101391.36;1695520;81;21108;-62
2020/12/31 08:23:41;;;;;;;1999.90;999.90;;;;;;;-0.81;100.00;101383.52;1737235;81;21026;-71
2020/12/31 08:26:12;;;;;;;1999.90;999.90;;;;;;;-0.81;100.00;101373.17;1735864;81;21563;-70
2020/12/31 08:28:45;;;;;;;1999.90;999.90;;;;;;;-0.82;100.00;101372.34;1735604;81;21386;-62
2020/12/31 08:31:15;;;;;;;1999.90;999.90;;;;;;;-0.85;100.00;101376.84;1749107;81;21159;-62
2020/12/31 08:33:43;;;;;;;1999.90;999.90;;;;;;;-0.87;100.00;101369.42;1747099;81;21531;-70
2020/12/31 08:36:11;;;;;;;1999.90;999.90;;;;;;;-0.85;100.00;101361.05;1743786;81;21408;-62
2020/12/31 08:38:40;;;;;;;1999.90;999.90;;;;;;;-0.83;100.00;101365.75;1744928;81;21190;-62
2020/12/31 08:41:08;;;;;;;1999.90;999.90;;;;;;;-0.81;100.00;101365.02;1749545;81;21348;-72
2020/12/31 08:43:37;;;;;;;1999.90;999.90;;;;;;;-0.81;100.00;101367.20;1742448;81;21186;-62
2020/12/31 08:46:09;;;;;;;1999.90;999.90;;;;;;;-0.79;100.00;101368.35;1739969;81;21271;-71
2020/12/31 08:48:37;;;;;;;1999.90;999.90;;;;;;;-0.78;100.00;101371.38;1735167;81;21542;-71
2020/12/31 08:51:13;;;;;;;1999.90;999.90;;;;;;;-0.77;100.00;101373.05;1743124;81;21139;-65
2020/12/31 08:53:59;;;;;;;1999.90;999.90;;;;;;;-0.75;100.00;101372.31;1732214;81;21351;-62
2020/12/31 08:56:30;;;;;;;1999.90;999.90;;;;;;;-0.73;100.00;101372.94;1740243;81;21128;-62
2020/12/31 08:59:14;;;;;;;1999.90;999.90;;;;;;;-0.72;100.00;101372.72;1737200;81;21131;-71
2020/12/31 09:01:43;;;;;;;1999.90;999.90;;;;;;;-0.75;100.00;101363.64;1739773;81;21127;-68
2020/12/31 09:04:19;;;;;;;1999.90;999.90;;;;;;;-0.73;100.00;101360.17;1743937;81;21115;-62
2020/12/31 09:06:49;;;;;;;1999.90;999.90;;;;;;;-0.76;100.00;101352.45;1742361;81;21215;-70
2020/12/31 09:09:22;;;;;;;1999.90;999.90;;;;;;;-0.76;100.00;101344.30;1737766;81;21118;-62
2020/12/31 09:12:06;;;;;;;1999.90;999.90;;;;;;;-0.72;100.00;101341.46;1864926;76;22649;-63
2020/12/31 09:14:36;;;;;;;1999.90;999.90;;;;;;;-0.75;100.00;101345.97;1833189;77;20917;-63
2020/12/31 09:17:25;;;;;;;1999.90;999.90;;;;;;;-0.71;100.00;101341.77;1784589;80;21203;-63
2020/12/31 09:19:55;;;;;;;1999.90;999.90;;;;;;;-0.70;100.00;101341.25;1781378;80;21215;-63
2020/12/31 09:22:24;;;;;;;1999.90;999.90;;;;;;;-0.69;100.00;101339.67;1784250;80;21168;-63
2020/12/31 09:24:53;;;;;;;1999.90;999.90;;;;;;;-0.71;100.00;101340.41;1782946;80;21705;-71
2020/12/31 09:27:25;;;;;;;1999.90;999.90;;;;;;;-0.72;100.00;101336.55;1783793;80;21137;-63
2020/12/31 09:30:03;;;;;;;1999.90;999.90;;;;;;;-0.67;100.00;101328.05;1860065;76;22573;-62
2020/12/31 09:32:31;;;;;;;1999.90;999.90;;;;;;;-0.69;100.00;101329.32;1824752;77;20988;-70
2020/12/31 09:35:02;;;;;;;1999.90;999.90;;;;;;;-0.67;100.00;101328.58;1832970;77;21339;-62
2020/12/31 09:37:30;;;;;;;1999.90;999.90;;;;;;;-0.65;100.00;101327.84;1827849;77;21535;-70
2020/12/31 09:39:57;;;;;;;1999.90;999.90;;;;;;;-0.67;100.00;101318.54;1830599;77;21570;-70
2020/12/31 09:42:25;;;;;;;1999.90;999.90;;;;;;;-0.65;100.00;101321.87;1828618;77;20988;-64
2020/12/31 09:44:53;;;;;;;1999.90;999.90;;;;;;;-0.65;100.00;101326.48;1820854;77;21510;-72
2020/12/31 09:47:21;;;;;;;1999.90;999.90;;;;;;;-0.64;100.00;101310.48;1828536;77;22101;-71
2020/12/31 09:49:48;;;;;;;1999.90;999.90;;;;;;;-0.63;100.00;101302.63;1825813;77;20968;-72
2020/12/31 09:52:16;;;;;;;1999.90;999.90;;;;;;;-0.62;100.00;101299.39;1791980;79;21462;-64
2020/12/31 09:54:44;;;;;;;1999.90;999.90;;;;;;;-0.62;100.00;101303.46;1770985;79;21780;-71
2020/12/31 09:57:12;;;;;;;1999.90;999.90;;;;;;;-0.60;100.00;101298.12;1773315;79;21541;-64
2020/12/31 09:59:39;;;;;;;1999.90;999.90;;;;;;;-0.59;100.00;101294.34;1766263;79;21206;-71
2020/12/31 10:02:07;;;;;;;1999.90;999.90;;;;;;;-0.59;100.00;101288.91;1773272;79;21544;-64
2020/12/31 10:04:35;;;;;;;1999.90;999.90;;;;;;;-0.59;100.00;101289.44;1769598;79;20979;-64
2020/12/31 10:07:03;;;;;;;1999.90;999.90;;;;;;;-0.59;100.00;101280.75;1771747;79;21149;-64
2020/12/31 10:09:31;;;;;;;1999.90;999.90;;;;;;;-0.56;100.00;101274.05;1764799;79;20956;-64
2020/12/31 10:11:59;;;;;;;1999.90;999.90;;;;;;;-0.53;100.00;101277.16;1773817;79;22306;-72
2020/12/31 10:14:27;;;;;;;1999.90;999.90;;;;;;;-0.49;100.00;101272.13;1772447;79;21770;-72
2020/12/31 10:16:55;;;;;;;1999.90;999.90;;;;;;;-0.46;100.00;101267.08;1770392;79;20982;-64
2020/12/31 10:19:23;;;;;;;1999.90;999.90;;;;;;;-0.45;100.00;101268.75;1769941;79;21067;-71
2020/12/31 10:21:51;;;;;;;1999.90;999.90;;;;;;;-0.45;100.00;101268.75;1767746;81;20979;-65
2020/12/31 10:24:19;;;;;;;1999.90;999.90;;;;;;;-0.47;100.00;101272.22;1763184;79;22307;-71
2020/12/31 10:26:46;;;;;;;1999.90;999.90;;;;;;;-0.46;100.00;101268.97;1770264;79;20995;-64
2020/12/31 10:29:15;;;;;;;1999.90;999.90;;;;;;;-0.41;100.00;101276.78;1768068;79;21109;-72
2020/12/31 10:31:43;;;;;;;1999.90;999.90;;;;;;;-0.40;100.00;101278.44;1777190;79;21156;-71
2020/12/31 10:34:10;;;;;;;1999.90;999.90;;;;;;;-0.38;100.00;101276.34;1775792;79;20950;-71
2020/12/31 10:36:38;;;;;;;1999.90;999.90;;;;;;;-0.37;100.00;101278.53;1776302;79;21421;-64
2020/12/31 10:39:06;;;;;;;1999.90;999.90;;;;;;;-0.40;100.00;101278.44;1774009;79;21124;-64
2020/12/31 10:41:34;;;;;;;1999.90;999.90;;;;;;;-0.42;100.00;101269.67;1774850;79;20990;-65
2020/12/31 10:44:02;;;;;;;1999.90;999.90;;;;;;;-0.42;100.00;101265.59;1771899;79;21101;-73
2020/12/31 10:46:30;;;;;;;1999.90;999.90;;;;;;;-0.43;100.00;101262.56;1772982;79;20958;-64
2020/12/31 10:48:59;;;;;;;1999.90;999.90;;;;;;;-0.43;100.00;101259.02;1770914;79;21588;-64
2020/12/31 10:51:27;;;;;;;1999.90;999.90;;;;;;;-0.44;100.00;101262.26;1767841;79;21105;-72